Time;durP1;ratioP1;P1;durP2;ratioP2;P2;SDS_P1;SDS_P2;PMS_P1;PMS_P2;Temp;Humidity;BMP_temperature;BMP_pressure;BME280_temperature;BME280_humidity;BME280_pressure;Samples;Min_cycle;Max_cycle;Signal;HPM_P1;HPM_P2
2021/12/04 00:01:11;;;;;;;4.73;3.50;;;;;;;4.81;78.10;97022.44;4901435;29;20655;-84
2021/12/04 00:03:42;;;;;;;6.77;3.90;;;;;;;4.78;77.34;97015.72;4906362;29;20651;-83
2021/12/04 00:06:17;;;;;;;6.03;3.23;;;;;;;4.79;77.38;97013.97;4923380;29;20655;-83
2021/12/04 00:08:47;;;;;;;6.83;3.57;;;;;;;4.81;78.55;97006.94;4921729;29;20631;-83
2021/12/04 00:11:15;;;;;;;6.33;3.50;;;;;;;4.83;77.52;97007.69;4886370;29;20662;-83
2021/12/04 00:13:44;;;;;;;4.33;3.20;;;;;;;4.86;78.29;97003.16;4893771;29;20626;-83
2021/12/04 00:16:12;;;;;;;4.93;3.37;;;;;;;4.87;77.87;96999.66;4920773;29;21055;-83
2021/12/04 00:18:41;;;;;;;4.77;3.37;;;;;;;4.92;77.95;96991.59;4906697;29;20657;-84
2021/12/04 00:21:11;;;;;;;4.37;3.30;;;;;;;4.93;77.17;96988.94;4890170;29;20651;-83
2021/12/04 00:23:39;;;;;;;6.00;3.07;;;;;;;4.94;77.63;96987.16;4902736;29;20625;-83
2021/12/04 00:26:07;;;;;;;4.83;3.93;;;;;;;4.95;77.78;96983.66;4908552;29;20619;-83
2021/12/04 00:28:35;;;;;;;5.97;3.60;;;;;;;4.91;77.62;96977.03;4902863;29;20640;-83
2021/12/04 00:31:07;;;;;;;6.10;3.37;;;;;;;4.92;77.41;96973.53;4924730;29;20630;-83
2021/12/04 00:33:37;;;;;;;7.07;4.20;;;;;;;4.95;78.45;96970.75;4910925;29;20646;-83
2021/12/04 00:36:08;;;;;;;4.53;3.20;;;;;;;4.95;80.05;96966.41;4898109;29;20718;-83
2021/12/04 00:49:31;;;;;;;5.43;3.77;;;;;;;4.91;77.47;96939.09;4905912;29;20634;-83
2021/12/04 00:51:59;;;;;;;5.53;3.60;;;;;;;4.96;77.95;96939.66;4922308;29;20688;-84
2021/12/04 00:54:29;;;;;;;7.00;3.40;;;;;;;5.00;78.31;96946.25;4921143;29;20631;-83
2021/12/04 00:56:57;;;;;;;7.03;4.13;;;;;;;5.01;78.10;96941.94;4921676;29;20653;-83
2021/12/04 00:59:26;;;;;;;11.17;4.20;;;;;;;5.04;77.19;96932.22;4924643;29;20635;-84
2021/12/04 01:01:54;;;;;;;4.67;3.50;;;;;;;5.07;77.78;96933.78;4902298;29;20631;-84
2021/12/04 01:04:24;;;;;;;6.00;4.20;;;;;;;5.07;77.57;96933.78;4903467;29;20618;-84
2021/12/04 01:06:52;;;;;;;6.10;4.20;;;;;;;5.11;77.93;96928.28;4906483;29;20662;-83
2021/12/04 01:09:24;;;;;;;6.90;4.40;;;;;;;5.12;77.26;96929.97;4886567;29;20635;-83
2021/12/04 01:11:55;;;;;;;4.80;3.80;;;;;;;5.09;77.62;96925.00;4902053;29;20633;-83
2021/12/04 01:14:26;;;;;;;5.17;3.70;;;;;;;5.04;77.48;96913.34;4902037;29;21334;-83
2021/12/04 01:16:55;;;;;;;5.00;3.90;;;;;;;5.02;78.48;96902.25;4910606;29;21057;-83
2021/12/04 01:19:23;;;;;;;7.33;4.60;;;;;;;4.97;78.90;96891.41;4905506;29;20665;-83
2021/12/04 01:21:51;;;;;;;6.17;3.90;;;;;;;4.93;78.92;96884.78;4924485;29;21015;-83
2021/12/04 01:24:20;;;;;;;7.73;4.70;;;;;;;4.92;78.33;96890.88;4919261;29;20619;-83
2021/12/04 01:26:48;;;;;;;6.97;4.30;;;;;;;4.89;79.03;96883.34;4921426;29;20626;-83
2021/12/04 01:29:19;;;;;;;6.37;4.27;;;;;;;4.88;79.04;96884.25;4901011;29;20638;-84
2021/12/04 01:31:47;;;;;;;5.50;4.20;;;;;;;4.86;78.11;96878.38;4906385;29;20630;-83
2021/12/04 01:34:16;;;;;;;5.23;4.07;;;;;;;4.84;79.00;96883.63;4891945;29;20729;-83
2021/12/04 01:36:44;;;;;;;4.00;3.60;;;;;;;4.84;79.84;96872.47;4887199;29;21176;-84
2021/12/04 01:39:12;;;;;;;5.57;3.90;;;;;;;4.82;80.25;96866.56;4904800;29;20664;-83
2021/12/04 01:41:40;;;;;;;4.90;3.90;;;;;;;4.81;80.43;96852.00;4907475;29;20664;-83
2021/12/04 01:44:08;;;;;;;4.97;4.07;;;;;;;4.81;80.66;96857.16;4911009;29;20659;-83
2021/12/04 01:46:38;;;;;;;4.40;3.43;;;;;;;4.81;80.36;96860.59;4895166;29;20635;-83
2021/12/04 01:49:06;;;;;;;4.40;3.60;;;;;;;4.80;80.44;96866.69;4910358;29;20656;-83
2021/12/04 01:51:35;;;;;;;6.63;4.20;;;;;;;4.81;80.74;96862.31;4911415;29;20658;-83
2021/12/04 01:54:03;;;;;;;5.13;3.70;;;;;;;4.80;81.64;96858.13;4929347;29;20642;-83
2021/12/04 01:56:33;;;;;;;5.20;3.33;;;;;;;4.72;82.22;96858.59;4915015;29;20995;-83
2021/12/04 01:59:02;;;;;;;4.83;3.60;;;;;;;4.68;81.48;96851.16;4909614;29;20633;-83
2021/12/04 02:01:31;;;;;;;6.17;4.00;;;;;;;4.68;82.16;96860.69;4901389;29;21255;-83
2021/12/04 02:04:06;;;;;;;6.50;3.57;;;;;;;4.70;82.27;96859.63;4916544;29;20629;-83
2021/12/04 02:06:35;;;;;;;4.90;3.63;;;;;;;4.73;81.94;96851.69;4924313;29;20661;-83
2021/12/04 02:09:03;;;;;;;8.20;4.00;;;;;;;4.74;81.10;96850.75;4909068;29;20627;-83
2021/12/04 02:11:31;;;;;;;5.97;3.80;;;;;;;4.70;81.96;96849.31;4903969;29;20729;-84
2021/12/04 02:13:59;;;;;;;5.07;4.20;;;;;;;4.69;82.65;96837.31;4921355;29;20648;-83
2021/12/04 02:16:27;;;;;;;5.70;3.60;;;;;;;4.63;82.82;96836.88;4913331;29;20745;-83
2021/12/04 02:18:55;;;;;;;4.47;3.80;;;;;;;4.60;83.51;96837.09;4900744;29;20652;-83
2021/12/04 02:21:26;;;;;;;5.13;4.10;;;;;;;4.57;84.35;96832.97;4916913;29;20679;-83
2021/12/04 02:23:55;;;;;;;6.20;4.00;;;;;;;4.52;84.70;96829.84;4895618;29;20620;-84
2021/12/04 02:26:23;;;;;;;6.00;3.93;;;;;;;4.52;84.14;96824.69;4901954;29;21074;-84
2021/12/04 02:28:51;;;;;;;6.20;3.57;;;;;;;4.50;85.66;96816.22;4926077;29;20729;-84
2021/12/04 02:31:19;;;;;;;7.50;4.37;;;;;;;4.49;85.49;96819.72;4924523;29;20680;-83
2021/12/04 02:33:47;;;;;;;4.87;3.80;;;;;;;4.46;86.40;96824.25;4908561;29;20664;-84
2021/12/04 02:36:16;;;;;;;6.07;3.73;;;;;;;4.50;85.65;96815.41;4920688;29;20633;-84
2021/12/04 02:38:49;;;;;;;5.30;4.20;;;;;;;4.45;87.10;96807.97;4907559;29;21013;-84
2021/12/04 02:41:17;;;;;;;5.20;3.77;;;;;;;4.39;86.58;96803.19;4917613;29;20681;-84
2021/12/04 02:43:46;;;;;;;12.37;4.20;;;;;;;4.36;87.70;96799.97;4904854;29;20633;-84
2021/12/04 02:46:15;;;;;;;5.90;4.40;;;;;;;4.31;86.96;96795.09;4895363;29;20623;-84
2021/12/04 02:48:44;;;;;;;4.57;4.17;;;;;;;4.29;87.78;96781.47;4921937;29;20630;-83
2021/12/04 02:51:15;;;;;;;5.67;3.97;;;;;;;4.21;88.27;96776.00;4897594;29;20619;-83
2021/12/04 02:53:44;;;;;;;7.20;4.33;;;;;;;4.15;88.34;96772.16;4904163;29;21073;-84
2021/12/04 02:56:12;;;;;;;6.30;4.30;;;;;;;4.11;89.20;96763.78;4915169;29;20666;-84
2021/12/04 02:58:44;;;;;;;4.90;3.90;;;;;;;4.07;89.34;96764.91;4907007;29;20664;-84
2021/12/04 03:01:13;;;;;;;4.70;3.93;;;;;;;4.04;89.29;96759.94;4913562;29;21214;-84
2021/12/04 03:03:41;;;;;;;5.00;3.47;;;;;;;4.01;88.81;96749.81;4892370;29;20641;-84
2021/12/04 03:06:10;;;;;;;5.70;4.43;;;;;;;3.98;89.54;96742.28;4901047;29;20650;-84
2021/12/04 03:08:38;;;;;;;5.37;3.70;;;;;;;3.98;90.27;96744.03;4906220;29;20667;-84
2021/12/04 03:11:07;;;;;;;6.27;4.20;;;;;;;3.96;90.60;96736.41;4906341;29;21011;-84
2021/12/04 03:13:35;;;;;;;6.60;3.67;;;;;;;3.99;90.82;96737.97;4907579;29;21217;-84
2021/12/04 03:16:04;;;;;;;6.17;3.90;;;;;;;4.02;90.31;96737.78;4913060;29;20645;-84
2021/12/04 03:18:32;;;;;;;5.27;4.10;;;;;;;4.02;90.64;96736.00;4924962;29;20705;-84
2021/12/04 03:21:03;;;;;;;6.87;4.47;;;;;;;4.02;90.52;96730.03;4916316;29;20631;-84
2021/12/04 03:23:39;;;;;;;5.83;4.07;;;;;;;4.03;90.59;96721.34;4907326;29;20642;-84
2021/12/04 03:26:10;;;;;;;7.80;4.03;;;;;;;4.03;91.21;96718.78;4908995;29;20629;-83
2021/12/04 03:28:38;;;;;;;6.80;4.70;;;;;;;4.01;91.66;96711.13;4892809;29;20721;-84
2021/12/04 03:31:11;;;;;;;5.47;4.60;;;;;;;4.05;91.23;96704.06;4911065;29;20637;-84
2021/12/04 03:41:57;;;;;;;6.10;4.27;;;;;;;4.14;91.05;96677.66;4914784;29;20746;-84
2021/12/04 03:44:25;;;;;;;8.37;5.03;;;;;;;4.13;90.98;96663.09;4903668;29;21182;-84
2021/12/04 03:46:53;;;;;;;6.40;5.23;;;;;;;4.09;91.31;96662.50;4904714;29;20631;-84
2021/12/04 03:49:21;;;;;;;9.20;4.87;;;;;;;4.09;91.74;96651.34;4906811;29;20682;-84
2021/12/04 03:51:50;;;;;;;7.27;4.97;;;;;;;4.11;91.83;96655.47;4909218;29;20623;-84
2021/12/04 03:54:18;;;;;;;7.70;5.10;;;;;;;4.09;92.75;96648.75;4914908;29;20637;-83
2021/12/04 03:56:47;;;;;;;7.67;4.77;;;;;;;4.11;93.28;96647.72;4913200;29;21146;-83
2021/12/04 03:59:18;;;;;;;7.63;5.20;;;;;;;4.09;92.65;96643.59;4900085;29;20977;-83
2021/12/04 04:01:46;;;;;;;7.90;5.23;;;;;;;4.13;92.26;96632.97;4904657;29;20665;-84
2021/12/04 04:04:15;;;;;;;8.87;5.90;;;;;;;4.16;92.82;96637.13;4910336;29;20629;-84
2021/12/04 04:06:43;;;;;;;8.10;4.93;;;;;;;4.12;92.21;96630.50;4890646;29;21253;-84
2021/12/04 04:09:12;;;;;;;7.03;4.87;;;;;;;4.14;92.68;96626.91;4910682;29;21028;-85
2021/12/04 04:11:40;;;;;;;8.00;5.53;;;;;;;4.16;93.40;96624.22;4900585;29;20661;-83
2021/12/04 04:14:08;;;;;;;8.20;5.47;;;;;;;4.17;92.63;96631.03;4911744;29;20997;-84
2021/12/04 04:16:39;;;;;;;7.90;5.20;;;;;;;4.19;93.51;96613.69;4912193;29;20730;-84
2021/12/04 04:19:08;;;;;;;7.10;4.77;;;;;;;4.22;93.53;96615.16;4891638;29;20645;-84
2021/12/04 04:21:41;;;;;;;6.03;4.77;;;;;;;4.21;92.91;96621.22;4922305;29;20665;-84
2021/12/04 04:24:10;;;;;;;8.80;5.37;;;;;;;4.27;93.25;96618.25;4904797;29;20634;-84
2021/12/04 04:26:38;;;;;;;7.13;4.90;;;;;;;4.33;92.72;96617.81;4908890;29;20705;-84
2021/12/04 04:29:07;;;;;;;7.47;5.37;;;;;;;4.39;92.71;96607.09;4900947;29;20642;-84
2021/12/04 04:31:45;;;;;;;7.40;5.43;;;;;;;4.37;93.59;96598.59;4896480;29;20635;-84
2021/12/04 04:34:15;;;;;;;8.43;5.13;;;;;;;4.36;92.60;96596.97;4912337;29;20737;-84
2021/12/04 04:36:55;;;;;;;7.67;5.57;;;;;;;4.40;93.45;96588.09;4912464;29;20639;-84
2021/12/04 04:39:45;;;;;;;7.17;5.10;;;;;;;4.46;92.98;96587.66;4916828;29;20717;-84
2021/12/04 04:59:00;;;;;;;5.60;4.57;;;;;;;4.60;92.71;96558.31;4906197;29;21181;-84
2021/12/04 05:01:56;;;;;;;6.10;4.47;;;;;;;4.55;93.61;96566.38;4896985;29;20634;-84
2021/12/04 05:10:50;;;;;;;5.93;4.17;;;;;;;4.63;93.37;96556.38;4845310;29;21254;-84
2021/12/04 05:13:21;;;;;;;7.50;4.53;;;;;;;4.65;93.48;96546.75;4904533;29;20631;-83
2021/12/04 05:15:59;;;;;;;6.63;4.70;;;;;;;4.67;94.22;96547.47;4910548;29;20673;-83
2021/12/04 05:18:37;;;;;;;6.30;4.47;;;;;;;4.68;93.36;96543.97;4908873;29;20665;-83
2021/12/04 05:21:08;;;;;;;5.60;4.03;;;;;;;4.68;93.80;96531.88;4927561;29;20994;-83
2021/12/04 05:23:38;;;;;;;6.33;4.03;;;;;;;4.71;93.40;96543.75;4905297;29;20671;-83
2021/12/04 05:26:08;;;;;;;6.63;4.90;;;;;;;4.75;93.34;96532.25;4922466;29;20633;-83
2021/12/04 05:28:36;;;;;;;5.67;4.00;;;;;;;4.77;93.69;96530.41;4897924;29;20630;-83
2021/12/04 05:31:05;;;;;;;5.87;4.10;;;;;;;4.81;93.77;96527.50;4918477;29;20620;-83
2021/12/04 05:33:33;;;;;;;6.50;4.30;;;;;;;4.87;93.63;96521.91;4906089;29;21193;-83
2021/12/04 05:36:01;;;;;;;6.93;4.17;;;;;;;4.91;93.98;96527.66;4898271;29;20705;-83
2021/12/04 05:38:31;;;;;;;4.80;3.80;;;;;;;4.94;93.16;96511.97;4911372;29;20730;-83
2021/12/04 05:41:00;;;;;;;4.93;4.40;;;;;;;4.96;93.13;96507.50;4900959;29;20642;-83
2021/12/04 05:43:28;;;;;;;6.37;4.00;;;;;;;5.01;93.43;96519.16;4906247;29;20667;-84
2021/12/04 05:46:03;;;;;;;5.97;4.00;;;;;;;5.06;93.79;96514.47;4889268;29;20669;-83
2021/12/04 05:48:37;;;;;;;9.00;5.70;;;;;;;5.08;93.76;96514.38;4889501;29;20630;-83
2021/12/04 05:51:22;;;;;;;9.70;7.33;;;;;;;5.07;92.80;96513.56;4906716;29;20637;-83
2021/12/04 05:54:01;;;;;;;9.80;6.23;;;;;;;5.02;93.32;96513.06;4903610;29;21291;-83
2021/12/04 05:56:30;;;;;;;7.70;6.67;;;;;;;5.00;92.79;96509.75;4895278;29;21187;-83
2021/12/04 05:58:59;;;;;;;9.77;6.60;;;;;;;4.97;92.42;96512.56;4914411;29;21266;-83
2021/12/04 06:01:29;;;;;;;8.23;6.67;;;;;;;4.93;91.79;96515.47;4901418;29;21086;-83
2021/12/04 06:03:57;;;;;;;10.43;7.57;;;;;;;4.85;92.14;96513.44;4904870;29;20671;-83
2021/12/04 06:06:25;;;;;;;9.40;6.67;;;;;;;4.84;92.72;96505.78;4896202;29;20666;-83
2021/12/04 06:08:55;;;;;;;9.87;7.17;;;;;;;4.81;92.08;96504.28;4918439;29;21218;-83
2021/12/04 06:11:23;;;;;;;8.40;6.40;;;;;;;4.82;92.91;96497.34;4902903;29;20618;-83
2021/12/04 06:13:52;;;;;;;9.30;6.80;;;;;;;4.82;92.08;96492.16;4899228;29;20638;-83
2021/12/04 06:16:20;;;;;;;7.70;6.10;;;;;;;4.83;92.85;96499.81;4899191;29;20674;-83
2021/12/04 06:18:52;;;;;;;9.10;6.50;;;;;;;4.81;92.74;96496.53;4906213;29;20641;-83
2021/12/04 06:24:08;;;;;;;9.00;7.30;;;;;;;4.81;92.88;96490.50;4889594;29;20746;-83
2021/12/04 06:26:37;;;;;;;10.40;7.00;;;;;;;4.77;92.02;96489.09;4897953;29;20726;-83
2021/12/04 06:29:05;;;;;;;8.23;6.67;;;;;;;4.72;92.28;96486.00;4918143;29;20634;-83
2021/12/04 06:31:33;;;;;;;7.70;5.93;;;;;;;4.72;92.26;96486.84;4887185;29;21227;-83
2021/12/04 06:34:01;;;;;;;9.90;6.20;;;;;;;4.74;92.93;96489.31;4890346;29;21233;-83
2021/12/04 06:36:30;;;;;;;8.67;5.97;;;;;;;4.76;92.18;96490.84;4906985;29;20637;-83
2021/12/04 06:38:58;;;;;;;10.43;7.07;;;;;;;4.77;92.39;96489.91;4909126;29;21195;-83
2021/12/04 06:41:28;;;;;;;8.60;6.50;;;;;;;4.78;92.33;96486.41;4908926;29;21190;-83
2021/12/04 06:43:56;;;;;;;10.50;6.23;;;;;;;4.77;93.14;96473.63;4895700;29;20662;-83
2021/12/04 06:46:26;;;;;;;8.23;5.77;;;;;;;4.73;91.85;96480.72;4902802;29;20633;-83
2021/12/04 06:49:03;;;;;;;7.63;5.93;;;;;;;4.76;92.16;96471.97;4901946;29;20710;-83
2021/12/04 06:51:33;;;;;;;7.87;5.63;;;;;;;4.79;92.26;96469.97;4899871;29;20630;-83
2021/12/04 06:54:04;;;;;;;7.23;5.40;;;;;;;4.80;93.00;96469.03;4893751;29;20641;-83
2021/12/04 06:56:35;;;;;;;9.00;5.83;;;;;;;4.80;92.01;96469.03;4927001;29;20634;-83
2021/12/04 06:59:07;;;;;;;6.93;5.77;;;;;;;4.75;92.82;96467.72;4894448;29;20650;-83
2021/12/04 07:01:37;;;;;;;9.13;5.20;;;;;;;4.74;92.65;96458.34;4918675;29;20642;-83
2021/12/04 07:04:06;;;;;;;6.57;5.50;;;;;;;4.78;91.90;96459.75;4905553;29;20657;-83
2021/12/04 07:06:35;;;;;;;7.50;6.17;;;;;;;4.78;92.68;96464.91;4901100;29;20694;-83
2021/12/04 07:09:04;;;;;;;9.77;5.53;;;;;;;4.78;93.37;96464.91;4908026;29;20618;-83
2021/12/04 07:11:33;;;;;;;7.93;6.40;;;;;;;4.80;93.54;96461.31;4911866;29;20994;-83
2021/12/04 07:14:01;;;;;;;8.83;6.33;;;;;;;4.81;92.57;96456.94;4911457;29;20634;-83
2021/12/04 07:16:30;;;;;;;6.10;5.20;;;;;;;4.81;93.23;96450.06;4895698;29;20737;-83
2021/12/04 07:18:58;;;;;;;10.40;6.53;;;;;;;4.84;93.61;96456.72;4896816;29;20633;-83
2021/12/04 07:21:27;;;;;;;8.53;6.37;;;;;;;4.87;92.78;96451.34;4896071;29;20979;-83
2021/12/04 07:23:55;;;;;;;9.00;6.27;;;;;;;4.88;92.39;96451.22;4915954;29;20673;-83
2021/12/04 07:26:23;;;;;;;8.83;6.07;;;;;;;4.91;92.40;96460.53;4918462;29;20634;-83
2021/12/04 07:28:52;;;;;;;9.00;6.17;;;;;;;4.93;92.85;96454.34;4907770;29;21206;-83
2021/12/04 07:31:20;;;;;;;11.03;7.50;;;;;;;4.95;92.77;96449.06;4908517;29;20673;-83
2021/12/04 07:33:50;;;;;;;10.60;6.80;;;;;;;4.93;93.10;96445.75;4896322;29;20618;-83
2021/12/04 07:36:18;;;;;;;9.67;6.80;;;;;;;4.90;92.53;96449.38;4899497;29;20642;-83
2021/12/04 07:38:46;;;;;;;12.23;7.60;;;;;;;4.88;93.35;96440.91;4902176;29;20612;-83
2021/12/04 07:41:15;;;;;;;9.57;6.83;;;;;;;4.90;92.37;96439.06;4898741;29;20629;-83
2021/12/04 07:43:43;;;;;;;11.23;7.33;;;;;;;4.93;92.27;96438.00;4915741;29;20670;-83
2021/12/04 07:46:13;;;;;;;11.37;7.40;;;;;;;4.95;93.00;96443.88;4907868;29;21189;-83
2021/12/04 07:48:41;;;;;;;11.77;6.93;;;;;;;4.99;92.82;96437.53;4923111;29;21608;-83
2021/12/04 07:51:09;;;;;;;10.30;7.30;;;;;;;5.01;92.61;96439.09;4904702;29;20639;-82
2021/12/04 07:53:38;;;;;;;12.73;7.30;;;;;;;5.00;92.80;96439.19;4922991;29;21054;-83
2021/12/04 07:56:07;;;;;;;8.50;6.57;;;;;;;5.00;93.03;96436.63;4905943;29;20638;-83
2021/12/04 07:58:35;;;;;;;11.47;8.10;;;;;;;5.02;93.45;96432.16;4897231;29;20635;-83
2021/12/04 08:01:04;;;;;;;11.00;7.57;;;;;;;5.04;93.36;96430.31;4899360;29;20631;-83
2021/12/04 08:03:34;;;;;;;9.87;7.13;;;;;;;5.04;92.92;96432.88;4891679;29;21035;-83
2021/12/04 08:06:02;;;;;;;10.00;7.00;;;;;;;5.05;93.03;96431.94;4903485;29;20677;-83
2021/12/04 08:08:30;;;;;;;11.53;7.77;;;;;;;5.10;93.71;96429.81;4898562;29;20647;-83
2021/12/04 08:10:58;;;;;;;9.30;6.70;;;;;;;5.12;93.48;96435.72;4914353;29;21044;-83
2021/12/04 08:13:27;;;;;;;10.83;7.40;;;;;;;5.14;93.23;96425.16;4918425;29;20627;-83
2021/12/04 08:15:55;;;;;;;11.30;7.47;;;;;;;5.15;93.17;96419.03;4890052;29;21253;-83
2021/12/04 08:18:24;;;;;;;10.17;7.20;;;;;;;5.16;92.95;96423.28;4928953;29;20636;-83
2021/12/04 08:20:54;;;;;;;17.27;10.60;;;;;;;5.12;92.71;96428.78;4909089;29;20619;-83
2021/12/04 08:23:23;;;;;;;13.30;9.23;;;;;;;5.13;93.63;96426.09;4928755;29;21195;-83
2021/12/04 08:25:51;;;;;;;14.43;8.70;;;;;;;5.19;93.66;96425.63;4907707;29;20638;-83
2021/12/04 08:28:19;;;;;;;13.60;8.43;;;;;;;5.24;93.92;96418.38;4897301;29;20639;-83
2021/12/04 08:30:47;;;;;;;12.30;8.50;;;;;;;5.28;93.61;96422.38;4903120;29;20642;-83
2021/12/04 08:33:15;;;;;;;11.40;8.27;;;;;;;5.30;93.74;96417.91;4903642;29;21211;-83
2021/12/04 08:35:44;;;;;;;15.07;10.90;;;;;;;5.32;93.55;96413.47;4896797;29;21210;-83
2021/12/04 08:38:14;;;;;;;75.80;39.47;;;;;;;5.31;93.41;96417.00;4905920;29;20661;-83
2021/12/04 08:40:42;;;;;;;31.50;17.13;;;;;;;5.34;94.30;96410.78;4893180;29;21203;-83
2021/12/04 08:43:10;;;;;;;22.03;11.70;;;;;;;5.40;93.91;96420.66;4888420;29;21191;-83
2021/12/04 08:45:40;;;;;;;23.70;12.73;;;;;;;5.46;93.81;96421.00;4908754;29;20665;-83
2021/12/04 08:48:09;;;;;;;16.77;10.77;;;;;;;5.52;94.28;96409.38;4907009;29;20634;-83
2021/12/04 08:50:38;;;;;;;14.40;9.03;;;;;;;5.54;93.97;96416.06;4920263;29;20634;-83
2021/12/04 08:53:07;;;;;;;11.60;8.83;;;;;;;5.51;93.94;96412.91;4921559;29;21158;-83
2021/12/04 08:55:39;;;;;;;17.40;11.70;;;;;;;5.53;93.73;96417.00;4921838;29;20670;-83
2021/12/04 08:58:09;;;;;;;25.47;15.30;;;;;;;5.60;94.03;96413.03;4898518;29;20630;-83
2021/12/04 09:00:40;;;;;;;19.20;12.60;;;;;;;5.64;94.58;96423.03;4921178;29;20648;-83
2021/12/04 09:03:10;;;;;;;12.90;8.57;;;;;;;5.64;93.52;96409.28;4907247;29;20638;-83
2021/12/04 09:05:38;;;;;;;12.40;8.13;;;;;;;5.63;94.09;96408.44;4906418;29;20661;-83
2021/12/04 09:08:08;;;;;;;26.73;16.33;;;;;;;5.66;94.28;96404.81;4904375;29;21053;-83
2021/12/04 09:10:41;;;;;;;26.10;16.77;;;;;;;5.69;93.91;96407.16;4924105;29;20761;-83
2021/12/04 09:13:09;;;;;;;15.40;11.20;;;;;;;5.71;94.19;96416.47;4904498;29;20739;-83
2021/12/04 09:15:39;;;;;;;15.73;9.73;;;;;;;5.74;94.52;96411.09;4903562;29;20635;-83
2021/12/04 09:18:08;;;;;;;11.83;8.47;;;;;;;5.80;94.57;96412.38;4921063;29;20663;-83
2021/12/04 09:20:36;;;;;;;11.40;8.30;;;;;;;5.83;94.35;96414.72;4911679;29;20634;-83
2021/12/04 09:23:07;;;;;;;9.33;7.80;;;;;;;5.85;94.88;96411.09;4899338;29;20630;-83
2021/12/04 09:25:39;;;;;;;17.10;10.57;;;;;;;5.88;94.83;96407.41;4914299;29;20678;-83
2021/12/04 09:28:20;;;;;;;30.50;17.90;;;;;;;5.94;94.61;96414.72;4919129;29;20643;-83
2021/12/04 09:31:16;;;;;;;26.00;15.47;;;;;;;5.93;94.61;96406.13;4903247;29;21262;-83
2021/12/04 10:01:56;;;;;;;11.87;8.90;;;;;;;6.33;95.27;96369.28;4909158;29;20631;-83
2021/12/04 10:04:59;;;;;;;11.37;7.80;;;;;;;6.39;95.71;96370.53;4924927;29;20626;-83
2021/12/04 10:16:12;;;;;;;18.90;11.77;;;;;;;6.60;96.12;96338.59;4907965;29;20626;-83
2021/12/04 10:18:58;;;;;;;277.30;92.87;;;;;;;6.64;96.18;96337.38;4899246;29;21146;-83
2021/12/04 10:21:41;;;;;;;544.67;177.00;;;;;;;6.62;95.53;96334.91;4905678;29;21220;-83
2021/12/04 10:33:13;;;;;;;26.43;16.67;;;;;;;6.83;97.01;96309.06;5052861;28;20716;-84
2021/12/04 10:35:42;;;;;;;21.20;15.20;;;;;;;6.90;97.44;96302.41;5042150;28;20619;-84
2021/12/04 10:38:17;;;;;;;31.80;19.70;;;;;;;7.01;96.75;96307.53;5052904;28;20616;-84
2021/12/04 10:40:48;;;;;;;32.50;20.80;;;;;;;7.11;97.27;96288.47;5058126;28;20634;-84
2021/12/04 10:43:20;;;;;;;24.20;16.43;;;;;;;7.17;96.63;96290.56;5058331;28;20634;-84
2021/12/04 10:45:52;;;;;;;37.70;20.27;;;;;;;7.21;97.56;96289.38;5039624;28;20652;-84
2021/12/04 10:48:24;;;;;;;27.90;15.37;;;;;;;7.25;97.68;96286.38;5050986;28;20852;-84
2021/12/04 10:51:00;;;;;;;16.57;11.17;;;;;;;7.25;97.81;96273.44;5055460;28;20632;-84
2021/12/04 10:53:32;;;;;;;16.60;11.03;;;;;;;7.21;96.95;96263.44;5053105;28;21034;-84
2021/12/04 10:56:10;;;;;;;20.10;10.80;;;;;;;7.20;97.03;96265.22;5047286;28;20716;-84
2021/12/04 11:04:17;;;;;;;19.57;11.30;;;;;;;7.32;96.13;96252.97;5036794;28;20728;-84
2021/12/04 11:40:38;;;;;;;169.33;73.97;;;;;;;7.93;96.09;96182.69;5040140;28;20742;-84
2021/12/04 11:43:12;;;;;;;208.97;95.77;;;;;;;8.00;96.39;96177.66;5018485;28;20634;-84
2021/12/04 11:45:47;;;;;;;10.50;6.70;;;;;;;8.06;99.25;96177.09;5029219;28;21156;-84
2021/12/04 11:48:16;;;;;;;6.17;4.90;;;;;;;8.14;99.13;96182.44;5029875;28;20628;-84
2021/12/04 11:50:53;;;;;;;13.00;8.57;;;;;;;8.19;100.00;96177.66;5028781;28;21422;-84
2021/12/04 11:53:21;;;;;;;82.63;49.27;;;;;;;8.17;98.97;96168.38;5048096;28;20980;-84
2021/12/04 11:55:51;;;;;;;60.33;35.50;;;;;;;8.14;98.83;96172.06;5020658;28;20644;-84
2021/12/04 11:58:22;;;;;;;36.53;24.07;;;;;;;8.16;98.56;96177.97;5033082;28;20629;-84
2021/12/04 12:00:54;;;;;;;29.63;18.23;;;;;;;8.20;98.76;96162.94;5038241;28;20653;-84
2021/12/04 12:03:27;;;;;;;22.60;13.90;;;;;;;8.25;97.89;96166.72;5043255;28;20732;-84
2021/12/04 12:05:57;;;;;;;11.00;8.00;;;;;;;8.32;99.71;96167.03;5017915;28;20776;-84
2021/12/04 12:08:28;;;;;;;9.10;7.20;;;;;;;8.39;98.64;96158.53;5039429;28;20629;-84
2021/12/04 12:10:59;;;;;;;22.17;14.10;;;;;;;8.44;99.68;96167.53;5025541;28;20717;-84
2021/12/04 12:13:32;;;;;;;38.30;23.23;;;;;;;8.42;99.48;96160.84;5016012;28;21237;-84
2021/12/04 12:16:08;;;;;;;41.67;26.77;;;;;;;8.37;97.92;96152.63;5026089;28;20719;-84
2021/12/04 12:18:52;;;;;;;28.63;18.50;;;;;;;8.43;99.08;96144.28;5037497;28;20614;-84
2021/12/04 12:21:25;;;;;;;25.80;14.30;;;;;;;8.47;98.83;96135.28;5027765;28;20615;-84
2021/12/04 12:26:59;;;;;;;8.80;6.03;;;;;;;8.51;99.58;96129.66;5012170;28;20673;-84
2021/12/04 12:38:37;;;;;;;4.70;3.40;;;;;;;8.73;100.00;96107.72;4956536;28;21175;-84
2021/12/04 12:41:09;;;;;;;4.40;3.20;;;;;;;8.76;100.00;96107.44;4948841;28;20675;-84
2021/12/04 12:43:44;;;;;;;2.97;2.53;;;;;;;8.78;100.00;96095.94;4982766;28;20678;-84
2021/12/04 12:46:12;;;;;;;4.97;2.90;;;;;;;8.82;100.00;96106.88;5033602;28;20649;-84
2021/12/04 12:48:59;;;;;;;3.90;3.03;;;;;;;8.87;100.00;96102.03;5037114;28;20995;-84
2021/12/04 12:51:30;;;;;;;3.50;3.20;;;;;;;8.90;100.00;96106.97;5025056;28;20632;-84
2021/12/04 12:54:00;;;;;;;3.53;3.10;;;;;;;8.92;100.00;96110.25;5027531;28;20645;-84
2021/12/04 12:56:31;;;;;;;6.33;3.23;;;;;;;8.95;100.00;96096.00;5024167;28;20728;-84
2021/12/04 12:59:04;;;;;;;4.00;2.83;;;;;;;8.96;100.00;96097.63;5021832;28;21303;-84
2021/12/04 13:13:30;;;;;;;3.60;2.30;;;;;;;9.11;100.00;96085.78;5042613;28;20630;-84
2021/12/04 13:16:05;;;;;;;3.60;2.50;;;;;;;9.13;100.00;96090.84;5036378;28;20760;-84
2021/12/04 13:18:35;;;;;;;6.37;3.00;;;;;;;9.14;100.00;96090.72;5029868;28;21240;-84
2021/12/04 13:21:07;;;;;;;4.43;2.70;;;;;;;9.16;100.00;96096.56;5038007;28;20618;-84
2021/12/04 13:23:38;;;;;;;3.40;2.87;;;;;;;9.17;100.00;96087.81;5038540;28;20618;-84
2021/12/04 13:26:08;;;;;;;3.60;2.77;;;;;;;9.18;100.00;96092.03;5036894;28;20637;-84
2021/12/04 13:28:40;;;;;;;3.83;3.17;;;;;;;9.21;100.00;96091.75;5035147;28;21245;-84
2021/12/04 13:31:16;;;;;;;3.20;2.70;;;;;;;9.24;100.00;96091.44;5028028;28;20626;-84
2021/12/04 13:33:46;;;;;;;3.93;3.20;;;;;;;9.28;100.00;96087.59;5030754;28;20628;-84
2021/12/04 13:36:15;;;;;;;4.50;3.30;;;;;;;9.29;100.00;96089.25;5008663;28;20741;-84
2021/12/04 13:38:45;;;;;;;4.70;3.30;;;;;;;9.30;100.00;96087.47;5020559;28;20631;-84
2021/12/04 13:41:14;;;;;;;3.83;3.10;;;;;;;9.33;100.00;96084.56;5020724;28;21264;-84
2021/12/04 13:43:42;;;;;;;4.80;3.53;;;;;;;9.33;100.00;96090.59;5033624;28;20621;-84
2021/12/04 13:46:10;;;;;;;4.67;3.97;;;;;;;9.35;100.00;96091.28;5035107;28;20612;-84
2021/12/04 13:48:38;;;;;;;4.87;4.23;;;;;;;9.38;100.00;96103.97;5033474;28;20670;-84
2021/12/04 13:51:06;;;;;;;42.63;29.53;;;;;;;9.39;100.00;96109.00;5034388;28;20631;-84
2021/12/04 13:53:36;;;;;;;21.70;16.77;;;;;;;9.40;100.00;96115.06;5026665;28;20662;-84
2021/12/04 13:56:09;;;;;;;13.20;10.20;;;;;;;9.38;100.00;96102.19;5026062;28;20625;-84
2021/12/04 13:58:44;;;;;;;12.33;9.90;;;;;;;9.38;100.00;96080.53;5019066;28;20707;-84
2021/12/04 14:01:13;;;;;;;14.80;11.70;;;;;;;9.37;100.00;96084.13;5041785;28;20630;-84
2021/12/04 14:03:42;;;;;;;5.80;4.53;;;;;;;9.39;100.00;96082.19;5031576;28;20632;-84
2021/12/04 14:06:11;;;;;;;4.40;3.57;;;;;;;9.43;100.00;96091.34;5001925;28;20654;-84
2021/12/04 14:08:39;;;;;;;6.90;4.73;;;;;;;9.46;100.00;96091.88;5025423;28;20673;-84
2021/12/04 14:11:09;;;;;;;6.23;3.23;;;;;;;9.48;100.00;96092.53;5021054;28;20624;-84
2021/12/04 14:13:38;;;;;;;3.77;1.90;;;;;;;9.54;100.00;96088.53;5031262;28;20641;-84
2021/12/04 14:16:07;;;;;;;2.80;1.67;;;;;;;9.60;100.00;96087.94;5030824;28;20614;-84
2021/12/04 14:18:36;;;;;;;3.13;1.73;;;;;;;9.63;100.00;96095.44;5021876;28;20631;-84
2021/12/04 14:21:04;;;;;;;4.40;2.10;;;;;;;9.68;100.00;96106.22;5038384;28;20651;-84
2021/12/04 14:23:34;;;;;;;2.57;1.80;;;;;;;9.69;100.00;96106.09;5041785;28;20617;-84
2021/12/04 14:26:04;;;;;;;4.00;2.10;;;;;;;9.72;100.00;96100.59;5040327;28;20657;-84